createdAt,value
2022-09-04T00:00:52.875Z,0.00
2022-09-04T00:01:52.859Z,0.00
2022-09-04T00:02:52.875Z,0.00
2022-09-04T00:03:52.941Z,0.00
2022-09-04T00:04:52.921Z,0.00
2022-09-04T00:05:52.816Z,0.00
2022-09-04T00:06:52.837Z,0.00
2022-09-04T00:07:52.795Z,0.00
2022-09-04T00:08:52.804Z,0.00
2022-09-04T00:09:52.785Z,0.00
2022-09-04T00:10:52.768Z,0.00
2022-09-04T00:11:52.761Z,0.00
2022-09-04T00:12:52.783Z,0.00
2022-09-04T00:13:52.786Z,0.00
2022-09-04T00:14:52.748Z,0.00
2022-09-04T00:15:52.738Z,0.00
2022-09-04T00:16:52.779Z,0.00
2022-09-04T00:17:52.726Z,0.00
2022-09-04T00:18:52.727Z,0.00
2022-09-04T00:19:52.702Z,0.00
2022-09-04T00:20:52.685Z,0.00
2022-09-04T00:21:52.678Z,0.00
2022-09-04T00:22:52.669Z,0.00
2022-09-04T00:23:52.685Z,0.00
2022-09-04T00:24:52.674Z,0.00
2022-09-04T00:25:52.656Z,0.00
2022-09-04T00:26:52.672Z,0.00
2022-09-04T00:27:52.637Z,0.00
2022-09-04T00:28:52.630Z,0.00
2022-09-04T00:29:52.641Z,0.00
2022-09-04T00:30:52.654Z,0.00
2022-09-04T00:31:52.624Z,0.00
2022-09-04T00:32:52.597Z,0.00
2022-09-04T00:33:52.590Z,0.00
2022-09-04T00:34:52.584Z,0.00
2022-09-04T00:35:52.564Z,0.00
2022-09-04T00:36:52.562Z,0.00
2022-09-04T00:37:52.572Z,0.00
2022-09-04T00:38:52.547Z,0.00
2022-09-04T00:39:52.601Z,0.00
2022-09-04T00:40:52.534Z,0.00
2022-09-04T00:41:52.517Z,0.00
2022-09-04T00:42:52.518Z,0.00
2022-09-04T00:43:52.523Z,0.00
2022-09-04T00:44:52.489Z,0.00
2022-09-04T00:45:52.643Z,0.00
2022-09-04T00:46:52.487Z,0.00
2022-09-04T00:47:52.470Z,0.00
2022-09-04T00:48:52.465Z,0.00
2022-09-04T00:49:52.464Z,0.00
2022-09-04T00:50:52.452Z,0.00
2022-09-04T00:51:52.468Z,0.00
2022-09-04T00:52:53.665Z,0.00
2022-09-04T00:53:53.429Z,0.00
2022-09-04T00:54:52.427Z,0.00
2022-09-04T00:55:52.412Z,0.00
2022-09-04T00:56:52.438Z,0.00
2022-09-04T00:57:52.395Z,0.00
2022-09-04T00:58:52.388Z,0.00
2022-09-04T00:59:52.387Z,0.00
2022-09-04T01:00:52.426Z,0.00
2022-09-04T01:01:52.418Z,0.00
2022-09-04T01:02:52.387Z,0.00
2022-09-04T01:03:52.351Z,0.00
2022-09-04T01:04:52.338Z,0.00
2022-09-04T01:05:52.335Z,0.00
2022-09-04T01:06:52.327Z,0.00
2022-09-04T01:07:52.313Z,0.00
2022-09-04T01:08:56.124Z,0.00
2022-09-04T01:09:52.312Z,0.00
2022-09-04T01:10:52.301Z,0.00
2022-09-04T01:11:52.287Z,0.00
2022-09-04T01:12:52.290Z,0.00
2022-09-04T01:13:52.279Z,0.00
2022-09-04T01:14:52.957Z,0.00
2022-09-04T01:15:52.280Z,0.00
2022-09-04T01:16:52.293Z,0.00
2022-09-04T01:17:52.237Z,0.00
2022-09-04T01:18:52.233Z,0.00
2022-09-04T01:19:52.229Z,0.00
2022-09-04T01:20:52.237Z,0.00
2022-09-04T01:21:52.235Z,0.00
2022-09-04T01:22:52.206Z,0.00
2022-09-04T01:23:52.192Z,0.00
2022-09-04T01:24:52.206Z,0.00
2022-09-04T01:25:52.193Z,0.00
2022-09-04T01:26:52.176Z,0.00
2022-09-04T01:27:52.187Z,0.00
2022-09-04T01:28:52.163Z,0.00
2022-09-04T01:29:52.148Z,0.00
2022-09-04T01:30:52.134Z,0.00
2022-09-04T01:31:52.179Z,0.00
2022-09-04T01:32:52.148Z,0.00
2022-09-04T01:33:52.121Z,0.00
2022-09-04T01:34:52.106Z,0.00
2022-09-04T01:35:52.099Z,0.00
2022-09-04T01:36:52.089Z,0.00
2022-09-04T01:37:52.085Z,0.00
2022-09-04T01:38:52.093Z,0.00
2022-09-04T01:39:52.132Z,0.00
2022-09-04T01:40:52.060Z,0.00
2022-09-04T01:41:52.093Z,0.00
2022-09-04T01:42:52.042Z,0.00
2022-09-04T01:43:52.042Z,0.00
2022-09-04T01:44:52.047Z,0.00
2022-09-04T01:45:52.038Z,0.00
2022-09-04T01:46:52.023Z,0.00
2022-09-04T01:47:52.005Z,0.00
2022-09-04T01:48:52.029Z,0.00
2022-09-04T01:49:51.998Z,0.00
2022-09-04T01:50:51.981Z,0.00
2022-09-04T01:51:51.977Z,0.00
2022-09-04T01:52:51.994Z,0.00
2022-09-04T01:53:51.958Z,0.00
2022-09-04T01:54:51.975Z,0.00
2022-09-04T01:55:51.947Z,0.00
2022-09-04T01:56:51.930Z,0.00
2022-09-04T01:57:51.922Z,0.00
2022-09-04T01:58:51.910Z,0.00
2022-09-04T01:59:53.818Z,0.00
2022-09-04T02:00:51.949Z,0.00
2022-09-04T02:01:51.962Z,0.00
2022-09-04T02:02:53.044Z,0.00
2022-09-04T02:03:51.875Z,0.00
2022-09-04T02:04:51.871Z,0.00
2022-09-04T02:05:51.868Z,0.00
2022-09-04T02:06:51.907Z,0.00
2022-09-04T02:07:51.847Z,0.00
2022-09-04T02:08:51.841Z,0.00
2022-09-04T02:09:53.997Z,0.00
2022-09-04T02:10:51.816Z,0.00
2022-09-04T02:11:51.849Z,0.00
2022-09-04T02:12:52.810Z,0.00
2022-09-04T02:13:51.802Z,0.00
2022-09-04T02:14:51.789Z,0.00
2022-09-04T02:15:51.782Z,0.00
2022-09-04T02:16:51.791Z,0.00
2022-09-04T02:17:51.793Z,0.00
2022-09-04T02:18:51.755Z,0.00
2022-09-04T02:19:51.755Z,0.00
2022-09-04T02:20:51.780Z,0.00
2022-09-04T02:21:51.747Z,0.00
2022-09-04T02:22:51.732Z,0.00
2022-09-04T02:23:51.870Z,0.00
2022-09-04T02:24:51.714Z,0.00
2022-09-04T02:25:51.710Z,0.00
2022-09-04T02:26:51.701Z,0.00
2022-09-04T02:27:51.697Z,0.00
2022-09-04T02:28:51.690Z,0.00
2022-09-04T02:29:51.691Z,0.00
2022-09-04T02:30:54.229Z,0.00
2022-09-04T02:31:51.681Z,0.00
2022-09-04T02:32:51.652Z,0.00
2022-09-04T02:33:51.641Z,0.00
2022-09-04T02:34:51.642Z,0.00
2022-09-04T02:35:51.646Z,0.00
2022-09-04T02:36:51.607Z,0.00
2022-09-04T02:37:51.605Z,0.00
2022-09-04T02:38:51.622Z,0.00
2022-09-04T02:39:51.653Z,0.00
2022-09-04T02:40:51.582Z,0.00
2022-09-04T02:41:51.574Z,0.00
2022-09-04T02:42:51.568Z,0.00
2022-09-04T02:43:51.562Z,0.00
2022-09-04T02:44:51.579Z,0.00
2022-09-04T02:45:51.551Z,0.00
2022-09-04T02:46:51.586Z,0.00
2022-09-04T02:47:51.534Z,0.00
2022-09-04T02:48:51.524Z,0.00
2022-09-04T02:49:51.513Z,0.00
2022-09-04T02:50:51.520Z,0.00
2022-09-04T02:51:51.501Z,0.00
2022-09-04T02:52:51.559Z,0.00
2022-09-04T02:53:51.485Z,0.00
2022-09-04T02:54:51.464Z,0.00
2022-09-04T02:55:51.457Z,0.00
2022-09-04T02:56:51.473Z,0.00
2022-09-04T02:57:51.448Z,0.00
2022-09-04T02:58:51.501Z,0.00
2022-09-04T02:59:51.441Z,0.00
2022-09-04T03:00:51.471Z,0.00
2022-09-04T03:01:51.472Z,0.00
2022-09-04T03:02:51.405Z,0.00
2022-09-04T03:03:51.401Z,0.00
2022-09-04T03:04:51.429Z,0.00
2022-09-04T03:05:51.393Z,0.00
2022-09-04T03:06:51.380Z,0.00
2022-09-04T03:07:51.361Z,0.00
2022-09-04T03:08:51.626Z,0.00
2022-09-04T03:09:51.347Z,0.00
2022-09-04T03:10:51.370Z,0.00
2022-09-04T03:11:51.336Z,0.00
2022-09-04T03:12:51.324Z,0.00
2022-09-04T03:13:51.319Z,0.00
2022-09-04T03:14:51.314Z,0.00
2022-09-04T03:15:51.389Z,0.00
2022-09-04T03:16:51.327Z,0.00
2022-09-04T03:17:51.293Z,0.00
2022-09-04T03:18:51.281Z,0.00
2022-09-04T03:19:51.272Z,0.00
2022-09-04T03:20:51.318Z,0.00
2022-09-04T03:21:51.262Z,0.00
2022-09-04T03:22:51.249Z,0.00
2022-09-04T03:23:51.243Z,0.00
2022-09-04T03:24:51.227Z,0.00
2022-09-04T03:25:51.228Z,0.00
2022-09-04T03:26:51.236Z,0.00
2022-09-04T03:27:51.211Z,0.00
2022-09-04T03:28:51.198Z,0.00
2022-09-04T03:29:51.206Z,0.00
2022-09-04T03:30:51.195Z,0.00
2022-09-04T03:31:51.217Z,0.00
2022-09-04T03:32:51.198Z,0.00
2022-09-04T03:33:51.168Z,0.00
2022-09-04T03:34:51.154Z,0.00
2022-09-04T03:35:51.148Z,0.00
2022-09-04T03:36:51.158Z,0.00
2022-09-04T03:37:51.138Z,0.00
2022-09-04T03:38:51.129Z,0.00
2022-09-04T03:39:51.204Z,0.00
2022-09-04T03:40:51.119Z,0.00
2022-09-04T03:41:51.119Z,0.00
2022-09-04T03:42:51.101Z,0.00
2022-09-04T03:43:51.103Z,0.00
2022-09-04T03:44:52.416Z,0.00
2022-09-04T03:45:51.105Z,0.00
2022-09-04T03:46:51.151Z,0.00
2022-09-04T03:47:51.055Z,0.00
2022-09-04T03:48:51.043Z,0.00
2022-09-04T03:49:51.039Z,0.00
2022-09-04T03:50:51.047Z,0.00
2022-09-04T03:51:51.029Z,0.00
2022-09-04T03:52:51.014Z,0.00
2022-09-04T03:53:51.007Z,0.00
2022-09-04T03:54:50.999Z,0.00
2022-09-04T03:55:50.997Z,0.00
2022-09-04T03:56:51.012Z,0.00
2022-09-04T03:57:50.983Z,1.00
2022-09-04T03:58:50.977Z,1.00
2022-09-04T03:59:50.965Z,1.00
2022-09-04T04:00:51.018Z,1.00
2022-09-04T04:01:50.968Z,0.00
2022-09-04T04:02:51.027Z,0.00
2022-09-04T04:03:50.923Z,1.00
2022-09-04T04:04:50.914Z,1.00
2022-09-04T04:05:50.908Z,1.00
2022-09-04T04:06:50.900Z,1.00
2022-09-04T04:07:50.910Z,2.00
2022-09-04T04:08:50.891Z,2.00
2022-09-04T04:09:50.883Z,2.00
2022-09-04T04:10:50.875Z,3.00
2022-09-04T04:11:50.864Z,5.00
2022-09-04T04:12:50.855Z,5.00
2022-09-04T04:13:50.871Z,7.00
2022-09-04T04:14:50.834Z,6.00
2022-09-04T04:15:50.906Z,7.00
2022-09-04T04:16:56.182Z,9.00
2022-09-04T04:17:51.821Z,11.00
2022-09-04T04:18:50.795Z,15.00
2022-09-04T04:19:50.822Z,15.00
2022-09-04T04:20:50.801Z,20.00
2022-09-04T04:21:50.781Z,20.00
2022-09-04T04:22:50.771Z,24.00
2022-09-04T04:23:50.767Z,29.00
2022-09-04T04:24:50.753Z,32.00
2022-09-04T04:25:52.595Z,36.00
2022-09-04T04:26:54.701Z,41.00
2022-09-04T04:27:50.741Z,47.00
2022-09-04T04:28:50.721Z,51.00
2022-09-04T04:29:50.719Z,59.00
2022-09-04T04:30:50.729Z,65.00
2022-09-04T04:31:50.728Z,74.00
2022-09-04T04:32:50.691Z,81.00
2022-09-04T04:33:50.697Z,90.00
2022-09-04T04:34:50.676Z,98.00
2022-09-04T04:35:50.665Z,109.00
2022-09-04T04:36:50.669Z,118.00
2022-09-04T04:37:50.645Z,129.00
2022-09-04T04:38:50.642Z,140.00
2022-09-04T04:39:50.719Z,152.00
2022-09-04T04:40:50.631Z,164.00
2022-09-04T04:41:50.628Z,179.00
2022-09-04T04:42:50.640Z,190.00
2022-09-04T04:43:50.597Z,208.00
2022-09-04T04:44:50.598Z,222.00
2022-09-04T04:45:50.594Z,238.00
2022-09-04T04:46:50.615Z,257.00
2022-09-04T04:47:50.564Z,277.00
2022-09-04T04:48:50.567Z,298.00
2022-09-04T04:49:50.555Z,320.00
2022-09-04T04:50:50.539Z,346.00
2022-09-04T04:51:50.533Z,374.00
2022-09-04T04:52:50.528Z,400.00
2022-09-04T04:53:50.548Z,423.00
2022-09-04T04:54:50.519Z,449.00
2022-09-04T04:55:50.514Z,475.00
2022-09-04T04:56:50.494Z,503.00
2022-09-04T04:57:50.486Z,530.00
2022-09-04T04:58:50.475Z,558.00
2022-09-04T04:59:50.585Z,589.00
2022-09-04T05:00:50.486Z,616.00
2022-09-04T05:01:50.576Z,644.00
2022-09-04T05:02:50.497Z,672.00
2022-09-04T05:03:50.450Z,706.00
2022-09-04T05:04:50.419Z,740.00
2022-09-04T05:05:50.437Z,772.00
2022-09-04T05:06:50.413Z,800.00
2022-09-04T05:07:50.415Z,831.00
2022-09-04T05:08:50.402Z,863.00
2022-09-04T05:09:50.389Z,898.00
2022-09-04T05:10:50.399Z,933.00
2022-09-04T05:11:50.396Z,966.00
2022-09-04T05:12:50.373Z,1001.00
2022-09-04T05:13:51.660Z,1036.00
2022-09-04T05:14:50.401Z,1075.00
2022-09-04T05:16:08.048Z,1112.00
2022-09-04T05:16:55.509Z,1185.00
2022-09-04T05:17:50.326Z,1272.00
2022-09-04T05:18:50.312Z,1255.00
2022-09-04T05:19:52.326Z,1508.00
2022-09-04T05:20:50.300Z,2148.00
2022-09-04T05:21:50.317Z,2608.00
2022-09-04T05:22:50.283Z,2584.00
2022-09-04T05:23:50.280Z,2190.00
2022-09-04T05:24:50.277Z,2316.00
2022-09-04T05:25:51.265Z,3009.00
2022-09-04T05:26:50.251Z,4225.00
2022-09-04T05:27:50.270Z,4344.00
2022-09-04T05:28:50.231Z,3828.00
2022-09-04T05:29:50.229Z,4008.00
2022-09-04T05:30:50.254Z,4320.00
2022-09-04T05:31:50.204Z,5103.00
2022-09-04T05:32:50.200Z,5485.00
2022-09-04T05:33:50.214Z,4941.00
2022-09-04T05:34:50.181Z,4337.00
2022-09-04T05:35:50.180Z,4621.00
2022-09-04T05:36:50.171Z,5611.00
2022-09-04T05:37:50.160Z,5529.00
2022-09-04T05:38:50.152Z,5202.00
2022-09-04T05:39:50.209Z,5753.00
2022-09-04T05:40:50.138Z,5471.00
2022-09-04T05:41:50.135Z,5004.00
2022-09-04T05:42:50.139Z,5275.00
2022-09-04T05:43:50.115Z,5590.00
2022-09-04T05:44:50.120Z,5663.00
2022-09-04T05:45:50.094Z,6006.00
2022-09-04T05:46:52.087Z,6196.00
2022-09-04T05:47:50.071Z,5682.00
2022-09-04T05:48:50.115Z,5272.00
2022-09-04T05:49:50.084Z,5570.00
2022-09-04T05:50:50.053Z,6388.00
2022-09-04T05:51:50.052Z,6506.00
2022-09-04T05:52:50.042Z,7200.00
2022-09-04T05:53:50.034Z,7499.00
2022-09-04T05:54:50.026Z,7612.00
2022-09-04T05:55:50.043Z,8385.00
2022-09-04T05:56:50.014Z,8529.00
2022-09-04T05:57:50.014Z,7690.00
2022-09-04T05:58:49.992Z,8206.00
2022-09-04T05:59:49.986Z,9824.00
2022-09-04T06:00:49.973Z,10925.00
2022-09-04T06:01:52.149Z,11073.00
2022-09-04T06:02:50.005Z,11077.00
2022-09-04T06:03:49.987Z,11990.00
2022-09-04T06:04:49.947Z,13171.00
2022-09-04T06:05:49.941Z,13272.00
2022-09-04T06:06:49.991Z,13141.00
2022-09-04T06:07:49.926Z,16666.00
2022-09-04T06:08:49.918Z,18933.00
2022-09-04T06:09:49.963Z,63177.00
2022-09-04T06:10:49.904Z,62898.00
2022-09-04T06:11:49.905Z,62688.00
2022-09-04T06:12:49.899Z,21632.00
2022-09-04T06:13:49.876Z,18874.00
2022-09-04T06:14:49.865Z,18096.00
2022-09-04T06:15:49.895Z,18809.00
2022-09-04T06:16:49.845Z,22451.00
2022-09-04T06:17:49.925Z,23780.00
2022-09-04T06:18:49.823Z,24998.00
2022-09-04T06:19:49.822Z,24325.00
2022-09-04T06:20:49.805Z,23492.00
2022-09-04T06:21:49.803Z,26514.00
2022-09-04T06:22:52.772Z,23880.00
2022-09-04T06:23:50.805Z,18897.00
2022-09-04T06:24:49.784Z,16886.00
2022-09-04T06:25:49.771Z,16382.00
2022-09-04T06:26:49.769Z,17267.00
2022-09-04T06:27:49.757Z,17966.00
2022-09-04T06:28:49.757Z,19070.00
2022-09-04T06:29:49.765Z,16386.00
2022-09-04T06:30:49.799Z,18209.00
2022-09-04T06:31:49.724Z,17875.00
2022-09-04T06:32:49.720Z,18860.00
2022-09-04T06:33:49.696Z,18452.00
2022-09-04T06:34:49.694Z,23107.00
2022-09-04T06:35:49.706Z,25217.00
2022-09-04T06:36:49.685Z,25549.00
2022-09-04T06:37:49.674Z,25566.00
2022-09-04T06:38:49.666Z,26767.00
2022-09-04T06:39:49.773Z,26047.00
2022-09-04T06:40:49.663Z,24310.00
2022-09-04T06:41:49.663Z,23920.00
2022-09-04T06:42:49.641Z,22725.00
2022-09-04T06:43:49.627Z,23086.00
2022-09-04T06:44:49.613Z,23061.00
2022-09-04T06:45:49.608Z,21341.00
2022-09-04T06:46:49.674Z,21340.00
2022-09-04T06:47:49.590Z,22417.00
2022-09-04T06:48:49.589Z,20881.00
2022-09-04T06:49:49.577Z,20096.00
2022-09-04T06:50:49.569Z,22218.00
2022-09-04T06:51:49.569Z,24697.00
2022-09-04T06:52:49.578Z,24430.00
2022-09-04T06:53:49.564Z,24377.00
2022-09-04T06:54:49.545Z,24618.00
2022-09-04T06:55:49.527Z,24529.00
2022-09-04T06:56:49.544Z,22956.00
2022-09-04T06:57:49.510Z,23175.00
2022-09-04T06:58:49.522Z,24170.00
2022-09-04T06:59:49.516Z,23873.00
2022-09-04T07:00:49.486Z,22698.00
2022-09-04T07:01:49.534Z,24907.00
2022-09-04T07:02:49.578Z,28461.00
2022-09-04T07:03:49.456Z,24229.00
2022-09-04T07:04:49.475Z,24159.00
2022-09-04T07:05:49.444Z,26250.00
2022-09-04T07:06:49.446Z,26151.00
2022-09-04T07:07:49.437Z,27709.00
2022-09-04T07:08:49.425Z,28071.00
2022-09-04T07:09:49.439Z,24156.00
2022-09-04T07:10:49.417Z,25171.00
2022-09-04T07:11:49.405Z,26972.00
2022-09-04T07:12:49.397Z,28698.00
2022-09-04T07:13:49.397Z,28820.00
2022-09-04T07:14:49.383Z,27192.00
2022-09-04T07:15:49.423Z,28225.00
2022-09-04T07:16:49.358Z,28977.00
2022-09-04T07:17:49.362Z,28058.00
2022-09-04T07:18:49.347Z,27246.00
2022-09-04T07:19:49.344Z,29305.00
2022-09-04T07:20:49.339Z,27317.00
2022-09-04T07:21:49.361Z,26702.00
2022-09-04T07:22:49.323Z,30342.00
2022-09-04T07:23:49.304Z,29063.00
2022-09-04T07:24:49.310Z,30755.00
2022-09-04T07:25:49.288Z,31451.00
2022-09-04T07:26:49.314Z,27450.00
2022-09-04T07:27:49.279Z,31481.00
2022-09-04T07:28:49.264Z,62668.00
2022-09-04T07:29:49.245Z,62680.00
2022-09-04T07:30:49.268Z,62683.00
2022-09-04T07:31:49.302Z,62701.00
2022-09-04T07:32:49.248Z,62701.00
2022-09-04T07:33:49.212Z,62699.00
2022-09-04T07:34:49.216Z,62678.00
2022-09-04T07:35:49.228Z,62679.00
2022-09-04T07:36:49.212Z,62779.00
2022-09-04T07:37:49.344Z,62673.00
2022-09-04T07:38:50.779Z,62677.00
2022-09-04T07:39:49.239Z,62687.00
2022-09-04T07:40:49.174Z,62705.00
2022-09-04T07:41:49.166Z,62707.00
2022-09-04T07:42:49.158Z,62705.00
2022-09-04T07:43:53.980Z,62702.00
2022-09-04T07:44:50.148Z,62702.00
2022-09-04T07:45:49.174Z,62711.00
2022-09-04T07:46:49.121Z,62687.00
2022-09-04T07:47:49.127Z,62658.00
2022-09-04T07:48:49.341Z,62655.00
2022-09-04T07:49:49.322Z,62661.00
2022-09-04T07:50:49.104Z,62708.00
2022-09-04T07:51:49.078Z,62731.00
2022-09-04T07:52:49.096Z,62767.00
2022-09-04T07:53:49.063Z,62739.00
2022-09-04T07:54:49.061Z,62751.00
2022-09-04T07:55:49.052Z,62695.00
2022-09-04T07:56:49.129Z,62681.00
2022-09-04T07:57:49.032Z,62679.00
2022-09-04T07:58:49.057Z,62667.00
2022-09-04T07:59:49.006Z,62735.00
2022-09-04T08:00:49.014Z,62644.00
2022-09-04T08:01:49.034Z,62656.00
2022-09-04T08:02:49.003Z,62643.00
2022-09-04T08:03:54.011Z,62693.00
2022-09-04T08:04:50.040Z,62709.00
2022-09-04T08:05:48.977Z,62736.00
2022-09-04T08:06:48.963Z,62719.00
2022-09-04T08:07:48.958Z,62721.00
2022-09-04T08:08:49.049Z,62738.00
2022-09-04T08:09:50.949Z,62798.00
2022-09-04T08:10:48.929Z,62829.00
2022-09-04T08:11:48.929Z,62829.00
2022-09-04T08:12:48.912Z,62836.00
2022-09-04T08:13:48.939Z,62823.00
2022-09-04T08:14:48.904Z,62859.00
2022-09-04T08:15:48.930Z,62860.00
2022-09-04T08:16:48.941Z,62949.00
2022-09-04T08:17:48.892Z,17425.00
2022-09-04T08:18:48.892Z,10009.00
2022-09-04T08:19:48.951Z,12228.00
2022-09-04T08:20:49.198Z,11205.00
2022-09-04T08:21:48.876Z,11347.00
2022-09-04T08:22:48.850Z,23004.00
2022-09-04T08:23:49.170Z,30589.00
2022-09-04T08:24:48.832Z,29853.00
2022-09-04T08:25:48.825Z,28349.00
2022-09-04T08:26:48.820Z,30074.00
2022-09-04T08:27:48.814Z,29121.00
2022-09-04T08:28:48.847Z,31061.00
2022-09-04T08:29:48.812Z,29223.00
2022-09-04T08:30:48.871Z,24630.00
2022-09-04T08:31:48.961Z,24317.00
2022-09-04T08:32:48.786Z,22938.00
2022-09-04T08:33:48.776Z,23459.00
2022-09-04T08:34:48.798Z,23584.00
2022-09-04T08:35:48.766Z,24855.00
2022-09-04T08:36:48.780Z,25432.00
2022-09-04T08:37:48.743Z,23627.00
2022-09-04T08:38:48.905Z,21674.00
2022-09-04T08:39:48.975Z,19059.00
2022-09-04T08:40:50.077Z,17857.00
2022-09-04T08:41:48.726Z,16468.00
2022-09-04T08:42:48.783Z,14976.00
2022-09-04T08:43:48.977Z,14653.00
2022-09-04T08:44:48.702Z,13792.00
2022-09-04T08:45:48.750Z,14775.00
2022-09-04T08:46:49.405Z,12669.00
2022-09-04T08:47:48.654Z,11907.00
2022-09-04T08:48:48.649Z,12312.00
2022-09-04T08:49:48.643Z,11461.00
2022-09-04T08:50:48.651Z,10480.00
2022-09-04T08:51:48.646Z,10264.00
2022-09-04T08:52:48.740Z,9603.00
2022-09-04T08:53:48.600Z,9567.00
2022-09-04T08:54:48.605Z,9429.00
2022-09-04T08:55:48.644Z,9316.00
2022-09-04T08:56:48.610Z,9267.00
2022-09-04T08:57:48.574Z,9263.00
2022-09-04T08:58:48.572Z,9229.00
2022-09-04T08:59:48.556Z,9210.00
2022-09-04T09:00:48.554Z,9168.00
2022-09-04T09:01:48.577Z,9108.00
2022-09-04T09:02:48.617Z,9053.00
2022-09-04T09:03:48.515Z,8987.00
2022-09-04T09:04:48.506Z,8964.00
2022-09-04T09:05:48.499Z,8913.00
2022-09-04T09:06:49.365Z,8867.00
2022-09-04T09:07:48.510Z,8828.00
2022-09-04T09:08:48.677Z,8799.00
2022-09-04T09:09:48.503Z,8813.00
2022-09-04T09:10:48.481Z,8781.00
2022-09-04T09:11:48.460Z,8785.00
2022-09-04T09:12:48.530Z,8797.00
2022-09-04T09:13:48.456Z,8791.00
2022-09-04T09:14:49.017Z,8704.00
2022-09-04T09:15:48.460Z,8808.00
2022-09-04T09:16:48.640Z,8800.00
2022-09-04T09:17:48.419Z,8869.00
2022-09-04T09:18:48.416Z,8784.00
2022-09-04T09:19:48.471Z,8695.00
2022-09-04T09:20:48.422Z,8748.00
2022-09-04T09:21:48.380Z,8771.00
2022-09-04T09:22:48.532Z,8675.00
2022-09-04T09:23:48.375Z,8588.00
2022-09-04T09:24:48.566Z,8542.00
2022-09-04T09:25:48.416Z,8558.00
2022-09-04T09:26:48.383Z,8474.00
2022-09-04T09:27:48.359Z,8415.00
2022-09-04T09:28:48.345Z,8409.00
2022-09-04T09:29:48.376Z,8422.00
2022-09-04T09:30:48.391Z,8437.00
2022-09-04T09:31:48.325Z,8456.00
2022-09-04T09:32:48.337Z,8461.00
2022-09-04T09:33:48.307Z,8473.00
2022-09-04T09:34:48.339Z,8461.00
2022-09-04T09:35:48.289Z,8440.00
2022-09-04T09:36:48.297Z,8510.00
2022-09-04T09:37:48.293Z,8613.00
2022-09-04T09:38:48.326Z,8600.00
2022-09-04T09:39:48.394Z,8534.00
2022-09-04T09:40:48.256Z,8531.00
2022-09-04T09:41:48.942Z,8508.00
2022-09-04T09:42:48.250Z,8532.00
2022-09-04T09:43:48.266Z,8584.00
2022-09-04T09:44:48.228Z,8673.00
2022-09-04T09:45:48.280Z,8841.00
2022-09-04T09:46:48.228Z,9040.00
2022-09-04T09:47:48.199Z,9062.00
2022-09-04T09:48:48.256Z,9073.00
2022-09-04T09:49:48.191Z,9070.00
2022-09-04T09:50:48.194Z,9054.00
2022-09-04T09:51:48.172Z,9147.00
2022-09-04T09:52:48.165Z,9270.00
2022-09-04T09:53:48.163Z,9285.00
2022-09-04T09:54:48.169Z,9301.00
2022-09-04T09:55:48.156Z,9268.00
2022-09-04T09:56:54.022Z,9235.00
2022-09-04T09:57:49.124Z,9205.00
2022-09-04T09:58:48.129Z,9292.00
2022-09-04T09:59:48.110Z,9294.00
2022-09-04T10:00:48.167Z,9181.00
2022-09-04T10:01:48.101Z,9198.00
2022-09-04T10:02:48.197Z,9044.00
2022-09-04T10:03:48.072Z,8590.00
2022-09-04T10:04:48.075Z,8489.00
2022-09-04T10:05:48.097Z,8535.00
2022-09-04T10:06:48.165Z,8678.00
2022-09-04T10:07:48.053Z,8722.00
2022-09-04T10:08:48.044Z,8780.00
2022-09-04T10:09:48.047Z,9009.00
2022-09-04T10:10:48.031Z,9329.00
2022-09-04T10:11:48.027Z,9278.00
2022-09-04T10:12:48.049Z,9148.00
2022-09-04T10:13:48.011Z,9309.00
2022-09-04T10:14:48.004Z,9401.00
2022-09-04T10:15:47.988Z,9429.00
2022-09-04T10:16:48.079Z,9395.00
2022-09-04T10:17:47.997Z,9140.00
2022-09-04T10:18:47.970Z,9306.00
2022-09-04T10:19:47.973Z,10021.00
2022-09-04T10:20:47.957Z,9090.00
2022-09-04T10:21:47.942Z,9732.00
2022-09-04T10:22:47.932Z,6909.00
2022-09-04T10:23:48.001Z,7048.00
2022-09-04T10:24:47.926Z,7201.00
2022-09-04T10:25:47.919Z,9339.00
2022-09-04T10:26:47.957Z,8027.00
2022-09-04T10:27:47.903Z,9043.00
2022-09-04T10:28:47.917Z,8919.00
2022-09-04T10:29:47.894Z,8709.00
2022-09-04T10:30:47.930Z,8581.00
2022-09-04T10:31:47.870Z,8700.00
2022-09-04T10:32:47.862Z,8496.00
2022-09-04T10:33:47.877Z,6126.00
2022-09-04T10:34:47.897Z,8758.00
2022-09-04T10:35:47.850Z,8893.00
2022-09-04T10:36:47.840Z,9202.00
2022-09-04T10:37:47.826Z,8085.00
2022-09-04T10:38:47.838Z,8895.00
2022-09-04T10:39:47.920Z,8529.00
2022-09-04T10:40:51.250Z,8332.00
2022-09-04T10:41:47.798Z,8308.00
2022-09-04T10:42:47.792Z,8356.00
2022-09-04T10:43:47.787Z,8316.00
2022-09-04T10:44:47.790Z,8264.00
2022-09-04T10:45:47.834Z,8297.00
2022-09-04T10:46:47.802Z,8326.00
2022-09-04T10:47:47.755Z,8375.00
2022-09-04T10:48:47.744Z,8290.00
2022-09-04T10:49:47.738Z,8112.00
2022-09-04T10:50:47.735Z,7840.00
2022-09-04T10:51:47.751Z,7689.00
2022-09-04T10:52:47.714Z,7723.00
2022-09-04T10:53:47.716Z,7752.00
2022-09-04T10:54:47.703Z,7767.00
2022-09-04T10:55:47.698Z,7737.00
2022-09-04T10:56:47.724Z,7707.00
2022-09-04T10:57:47.731Z,7725.00
2022-09-04T10:58:47.711Z,7732.00
2022-09-04T10:59:47.677Z,7738.00
2022-09-04T11:00:47.694Z,7662.00
2022-09-04T11:01:47.661Z,7642.00
2022-09-04T11:02:47.655Z,7687.00
2022-09-04T11:03:47.683Z,7703.00
2022-09-04T11:04:47.644Z,7576.00
2022-09-04T11:05:47.650Z,7486.00
2022-09-04T11:06:47.670Z,7453.00
2022-09-04T11:07:47.623Z,7484.00
2022-09-04T11:08:47.609Z,7466.00
2022-09-04T11:09:47.622Z,7465.00
2022-09-04T11:10:47.584Z,7523.00
2022-09-04T11:11:47.599Z,7596.00
2022-09-04T11:12:47.578Z,7546.00
2022-09-04T11:13:51.297Z,7523.00
2022-09-04T11:14:47.581Z,7550.00
2022-09-04T11:15:47.554Z,7605.00
2022-09-04T11:16:47.579Z,7656.00
2022-09-04T11:17:47.528Z,7674.00
2022-09-04T11:18:47.532Z,7616.00
2022-09-04T11:19:47.541Z,7572.00
2022-09-04T11:20:47.540Z,7559.00
2022-09-04T11:21:48.488Z,7591.00
2022-09-04T11:22:47.506Z,7657.00
2022-09-04T11:23:47.500Z,7610.00
2022-09-04T11:24:47.485Z,7581.00
2022-09-04T11:25:47.484Z,7587.00
2022-09-04T11:26:47.494Z,7623.00
2022-09-04T11:27:47.513Z,7657.00
2022-09-04T11:28:47.450Z,7642.00
2022-09-04T11:29:47.454Z,7752.00
2022-09-04T11:30:48.077Z,7880.00
2022-09-04T11:31:47.487Z,7922.00
2022-09-04T11:32:47.430Z,8001.00
2022-09-04T11:33:47.453Z,8074.00
2022-09-04T11:34:47.407Z,8159.00
2022-09-04T11:35:47.416Z,8137.00
2022-09-04T11:36:47.401Z,8257.00
2022-09-04T11:37:47.430Z,8240.00
2022-09-04T11:38:47.414Z,8229.00
2022-09-04T11:39:47.686Z,8299.00
2022-09-04T11:40:47.364Z,8387.00
2022-09-04T11:41:47.373Z,6949.00
2022-09-04T11:44:13.495Z,6928.00
2022-09-04T11:45:13.498Z,8981.00
2022-09-04T11:46:13.564Z,8975.00
2022-09-04T11:47:13.489Z,8911.00
2022-09-04T11:48:13.563Z,8732.00
2022-09-04T11:49:14.311Z,7966.00
2022-09-04T11:50:13.455Z,8600.00
2022-09-04T11:51:13.456Z,8643.00
2022-09-04T11:52:13.434Z,8758.00
2022-09-04T11:53:13.524Z,9113.00
2022-09-04T11:54:13.423Z,8902.00
2022-09-04T11:55:13.489Z,8556.00
2022-09-04T11:56:13.498Z,8698.00
2022-09-04T11:57:13.467Z,7184.00
2022-09-04T11:58:13.408Z,7573.00
2022-09-04T11:59:13.440Z,7232.00
2022-09-04T12:00:13.388Z,6875.00
2022-09-04T12:01:13.372Z,7082.00
2022-09-04T12:02:13.502Z,6680.00
2022-09-04T12:03:13.380Z,6783.00
2022-09-04T12:04:13.434Z,8516.00
2022-09-04T12:05:13.386Z,8688.00
2022-09-04T12:06:13.345Z,8865.00
2022-09-04T12:07:13.323Z,7295.00
2022-09-04T12:08:13.576Z,7679.00
2022-09-04T12:09:13.304Z,7039.00
2022-09-04T12:10:13.335Z,7924.00
2022-09-04T12:11:13.294Z,7375.00
2022-09-04T12:12:13.334Z,7385.00
2022-09-04T12:13:14.938Z,6663.00
2022-09-04T12:14:14.267Z,6649.00
2022-09-04T12:15:13.326Z,8043.00
2022-09-04T12:16:13.329Z,7990.00
2022-09-04T12:17:13.372Z,7597.00
2022-09-04T12:18:13.826Z,6983.00
2022-09-04T12:19:13.236Z,6180.00
2022-09-04T12:20:13.262Z,6061.00
2022-09-04T12:21:13.260Z,6124.00
2022-09-04T12:22:13.259Z,6272.00
2022-09-04T12:23:13.214Z,8310.00
2022-09-04T12:24:13.225Z,8463.00
2022-09-04T12:25:13.192Z,8487.00
2022-09-04T12:26:13.177Z,6746.00
2022-09-04T12:27:13.194Z,6844.00
2022-09-04T12:28:13.168Z,8180.00